createdAt,value
2022-09-07T00:01:21.889Z,96321.03
2022-09-07T00:03:56.933Z,96376.09
2022-09-07T00:06:36.956Z,96369.34
2022-09-07T00:09:06.608Z,96362.38
2022-09-07T00:11:34.847Z,96355.41
2022-09-07T00:14:03.158Z,96371.97
2022-09-07T00:16:33.006Z,96348.88
2022-09-07T00:19:04.368Z,96373.25
2022-09-07T00:21:33.373Z,96345.22
2022-09-07T00:24:01.589Z,96334.84
2022-09-07T00:26:32.040Z,96340.97
2022-09-07T00:29:02.500Z,96389.28
2022-09-07T00:31:33.448Z,96363.94
2022-09-07T00:34:03.238Z,96329.97
2022-09-07T00:36:31.661Z,96374.53
2022-09-07T00:38:59.919Z,96356.13
2022-09-07T00:41:28.846Z,96346.06
2022-09-07T00:43:59.437Z,96360.81
2022-09-07T00:46:30.239Z,96375.75
2022-09-07T00:49:04.580Z,96382.69
2022-09-07T00:51:39.318Z,96377.41
2022-09-07T00:54:11.642Z,96325.03
2022-09-07T00:56:43.619Z,96377.59
2022-09-07T00:59:14.345Z,96323.38
2022-09-07T01:01:42.879Z,96392.47
2022-09-07T01:04:12.847Z,96370.47
2022-09-07T01:06:42.518Z,96180.59
2022-09-07T01:09:14.293Z,96387.22
2022-09-07T01:11:45.067Z,96327.16
2022-09-07T01:14:15.870Z,96354.97
2022-09-07T01:16:58.281Z,96369.25
2022-09-07T01:20:15.374Z,96369.47
2022-09-07T01:23:21.865Z,96317.34
2022-09-07T01:26:09.785Z,96303.03
2022-09-07T01:28:40.668Z,96292.41
2022-09-07T01:31:24.212Z,96307.97
2022-09-07T01:34:02.493Z,96342.50
2022-09-07T01:36:36.538Z,96292.41
2022-09-07T01:39:06.809Z,96307.34
2022-09-07T01:41:44.209Z,96285.06
2022-09-07T01:44:20.569Z,96275.25
2022-09-07T01:46:55.690Z,96312.88
2022-09-07T01:49:29.996Z,96322.69
2022-09-07T01:52:05.011Z,96307.13
2022-09-07T01:54:39.068Z,96294.88
2022-09-07T01:57:11.867Z,96318.16
2022-09-07T01:59:46.635Z,96304.06
2022-09-07T02:02:19.400Z,96338.22
2022-09-07T02:04:52.850Z,96318.75
2022-09-07T02:07:27.885Z,96303.03
2022-09-07T02:10:01.868Z,96192.00
2022-09-07T02:12:38.192Z,96329.16
2022-09-07T02:15:15.650Z,96314.03
2022-09-07T02:17:48.758Z,96300.91
2022-09-07T02:20:21.395Z,96285.03
2022-09-07T02:22:54.859Z,96336.34
2022-09-07T02:25:28.163Z,96339.03
2022-09-07T02:28:03.298Z,96317.34
2022-09-07T02:30:32.965Z,96311.19
2022-09-07T02:33:01.325Z,96274.22
2022-09-07T02:35:29.940Z,96298.34
2022-09-07T02:37:59.707Z,96301.19
2022-09-07T02:40:27.999Z,96319.78
2022-09-07T02:42:58.154Z,96338.00
2022-09-07T02:45:26.716Z,96356.81
2022-09-07T02:48:11.845Z,96327.38
2022-09-07T02:50:53.950Z,96296.94
2022-09-07T02:54:14.385Z,96303.69
2022-09-07T02:56:57.034Z,96330.03
2022-09-07T02:59:47.184Z,96310.84
2022-09-07T03:02:22.044Z,96304.31
2022-09-07T03:05:02.703Z,96372.97
2022-09-07T03:07:38.989Z,96310.47
2022-09-07T03:10:10.234Z,96375.63
2022-09-07T03:12:44.832Z,96350.69
2022-09-07T03:15:14.058Z,96351.13
2022-09-07T03:17:43.508Z,96375.84
2022-09-07T03:20:13.505Z,96292.06
2022-09-07T03:22:41.783Z,96354.56
2022-09-07T03:25:11.549Z,96397.50
2022-09-07T03:27:39.853Z,96319.78
2022-09-07T03:30:11.041Z,96400.94
2022-09-07T03:32:40.597Z,96386.06
2022-09-07T03:35:10.743Z,96356.63
2022-09-07T03:37:40.497Z,96324.72
2022-09-07T03:40:12.381Z,96280.97
2022-09-07T03:42:40.899Z,96406.28
2022-09-07T03:45:11.202Z,96380.31
2022-09-07T03:47:40.069Z,96384.00
2022-09-07T03:50:09.529Z,96388.06
2022-09-07T03:52:39.572Z,96362.75
2022-09-07T03:55:08.603Z,96394.41
2022-09-07T03:57:37.004Z,96343.72
2022-09-07T04:00:07.132Z,96436.31
2022-09-07T04:02:40.793Z,96408.31
2022-09-07T04:05:34.219Z,96467.81
2022-09-07T04:08:04.245Z,96376.44
2022-09-07T04:10:32.499Z,96431.03
2022-09-07T04:13:00.686Z,96375.22
2022-09-07T04:15:30.461Z,96376.84
2022-09-07T04:17:59.444Z,96292.44
2022-09-07T04:20:27.754Z,96394.66
2022-09-07T04:22:55.943Z,96363.78
2022-09-07T04:25:25.679Z,96388.53
2022-09-07T04:27:54.368Z,96335.19
2022-09-07T04:30:22.594Z,96373.59
2022-09-07T04:32:51.258Z,96390.97
2022-09-07T04:35:19.621Z,96387.88
2022-09-07T04:37:47.842Z,96384.03
2022-09-07T04:40:16.299Z,96310.81
2022-09-07T04:42:46.018Z,96345.81
2022-09-07T04:45:14.275Z,96349.06
2022-09-07T04:47:48.553Z,96395.66
2022-09-07T04:50:17.855Z,96360.69
2022-09-07T04:52:46.501Z,96377.44
2022-09-07T04:55:14.819Z,96409.78
2022-09-07T04:57:43.199Z,96343.53
2022-09-07T05:00:14.863Z,96392.59
2022-09-07T05:02:43.315Z,96370.50
2022-09-07T05:05:11.716Z,96408.75
2022-09-07T05:07:39.963Z,96405.06
2022-09-07T05:10:09.060Z,96379.53
2022-09-07T05:12:37.302Z,96397.31
2022-09-07T05:15:07.129Z,96404.03
2022-09-07T05:17:37.143Z,96403.22
2022-09-07T05:20:07.346Z,96400.34
2022-09-07T05:22:35.654Z,96384.84
2022-09-07T05:25:04.220Z,96408.13
2022-09-07T05:27:32.442Z,96421.81
2022-09-07T05:32:33.900Z,96446.53
2022-09-07T05:35:03.635Z,96408.53
2022-09-07T05:37:31.864Z,96460.84
2022-09-07T05:40:00.180Z,96392.38
2022-09-07T05:42:28.524Z,96404.44
2022-09-07T05:44:56.766Z,96464.72
2022-09-07T05:47:25.429Z,96425.22
2022-09-07T05:49:57.104Z,96394.19
2022-09-07T05:52:27.227Z,96384.41
2022-09-07T05:55:03.205Z,96370.94
2022-09-07T05:57:43.653Z,96423.19
2022-09-07T06:00:14.393Z,96371.31
2022-09-07T06:02:42.792Z,96378.69
2022-09-07T06:05:12.316Z,96366.63
2022-09-07T06:07:42.164Z,96363.94
2022-09-07T06:12:59.198Z,96380.31
2022-09-07T06:15:27.555Z,96392.00
2022-09-07T06:17:55.769Z,96396.28
2022-09-07T06:20:24.696Z,96288.78
2022-09-07T06:22:54.254Z,96377.25
2022-09-07T06:25:22.511Z,96350.88
2022-09-07T06:27:52.037Z,96362.72
2022-09-07T06:30:20.362Z,96426.25
2022-09-07T06:32:48.867Z,96429.50
2022-09-07T06:35:17.304Z,96422.13
2022-09-07T06:37:45.731Z,96422.53
2022-09-07T06:40:15.584Z,96413.91
2022-09-07T06:42:43.932Z,96416.50
2022-09-07T06:45:12.915Z,96434.44
2022-09-07T06:47:41.494Z,96370.91
2022-09-07T06:50:12.579Z,96424.47
2022-09-07T06:55:30.450Z,96426.38
2022-09-07T06:57:58.669Z,96415.56
2022-09-07T07:00:27.283Z,96375.91
2022-09-07T07:02:55.572Z,96429.13
2022-09-07T07:05:23.881Z,96426.19
2022-09-07T07:07:52.060Z,96446.19
2022-09-07T07:10:24.477Z,96413.06
2022-09-07T07:12:57.976Z,96440.91
2022-09-07T07:15:29.352Z,96466.34
2022-09-07T07:18:05.146Z,96384.06
2022-09-07T07:20:43.308Z,96428.59
2022-09-07T07:23:13.187Z,96401.81
2022-09-07T07:25:41.897Z,96427.72
2022-09-07T07:31:04.860Z,96390.38
2022-09-07T07:33:38.186Z,96305.91
2022-09-07T07:36:11.755Z,96418.88
2022-09-07T07:44:19.513Z,96433.31
2022-09-07T07:46:49.907Z,96419.34
2022-09-07T07:49:18.517Z,96382.53
2022-09-07T07:54:36.793Z,96418.16
2022-09-07T07:57:06.159Z,96448.25
2022-09-07T07:59:36.246Z,96458.22
2022-09-07T08:02:05.778Z,96425.63
2022-09-07T08:04:35.995Z,96407.81
2022-09-07T08:07:10.075Z,96385.31
2022-09-07T08:09:41.259Z,96462.56
2022-09-07T08:12:12.057Z,96398.16
2022-09-07T08:14:42.207Z,96395.38
2022-09-07T08:17:13.119Z,96397.41
2022-09-07T08:19:42.100Z,96372.84
2022-09-07T08:22:11.670Z,96370.69
2022-09-07T08:24:40.710Z,96437.41
2022-09-07T08:27:09.532Z,96450.44
2022-09-07T08:29:37.759Z,96452.03
2022-09-07T08:32:08.177Z,96462.94
2022-09-07T08:34:39.467Z,96441.91
2022-09-07T08:37:07.749Z,96417.69
2022-09-07T08:39:36.731Z,96445.47
2022-09-07T08:42:25.712Z,96454.78
2022-09-07T08:45:00.375Z,96405.75
2022-09-07T08:47:41.525Z,96320.50
2022-09-07T08:50:19.832Z,96357.44
2022-09-07T08:52:53.063Z,96410.75
2022-09-07T08:55:28.293Z,96402.91
2022-09-07T08:58:04.009Z,96460.25
2022-09-07T09:00:32.881Z,96350.66
2022-09-07T09:06:03.202Z,96433.44
2022-09-07T09:08:46.940Z,96506.16
2022-09-07T09:11:24.974Z,96444.56
2022-09-07T09:14:01.905Z,96468.38
2022-09-07T09:16:36.353Z,96456.50
2022-09-07T09:19:40.732Z,96425.44
2022-09-07T09:22:16.086Z,96462.16
2022-09-07T09:24:49.264Z,96454.16
2022-09-07T09:27:17.784Z,96436.47
2022-09-07T09:29:46.017Z,96464.63
2022-09-07T09:32:37.715Z,96417.44
2022-09-07T09:35:18.276Z,96441.00
2022-09-07T09:37:46.563Z,96395.31
2022-09-07T09:40:25.792Z,96422.78
2022-09-07T09:43:03.560Z,96461.34
2022-09-07T09:48:33.865Z,96382.56
2022-09-07T09:53:58.969Z,96392.78
2022-09-07T09:56:41.894Z,96381.59
2022-09-07T10:05:34.072Z,96343.16
2022-09-07T10:08:05.581Z,96386.41
2022-09-07T10:10:33.817Z,96347.25
2022-09-07T10:13:02.031Z,96403.94
2022-09-07T10:15:41.397Z,96410.03
2022-09-07T10:18:21.272Z,96242.66
2022-09-07T10:20:50.061Z,96364.84
2022-09-07T10:23:25.748Z,96368.91
2022-09-07T10:25:53.981Z,96410.09
2022-09-07T10:28:24.849Z,96366.09
2022-09-07T10:31:15.036Z,96353.75
2022-09-07T10:36:47.413Z,96390.41
2022-09-07T10:39:24.829Z,96383.53
2022-09-07T10:42:03.737Z,96375.78
2022-09-07T10:44:54.280Z,96412.19
2022-09-07T10:47:33.255Z,96319.09
2022-09-07T10:50:24.260Z,96371.00
2022-09-07T10:53:23.544Z,96373.22
2022-09-07T10:56:05.737Z,96299.84
2022-09-07T10:59:05.338Z,96328.19
2022-09-07T11:01:47.339Z,96331.44
2022-09-07T11:04:36.161Z,96360.31
2022-09-07T11:07:22.140Z,96356.81
2022-09-07T11:10:00.231Z,96245.31
2022-09-07T11:12:33.783Z,96321.94
2022-09-07T11:15:15.867Z,96319.75
2022-09-07T11:17:52.817Z,96343.53
2022-09-07T11:20:29.876Z,96294.38
2022-09-07T11:23:11.400Z,96319.22
2022-09-07T11:25:48.569Z,96303.53
2022-09-07T11:28:23.923Z,96364.53
2022-09-07T11:31:00.242Z,96374.78
2022-09-07T11:33:35.231Z,96297.88
2022-09-07T11:36:12.390Z,96313.31
2022-09-07T11:38:47.200Z,96314.97
2022-09-07T11:41:23.952Z,96269.06
2022-09-07T11:44:04.310Z,96329.56
2022-09-07T11:46:40.262Z,96331.97
2022-09-07T11:49:16.999Z,96200.28
2022-09-07T11:51:54.008Z,96314.94
2022-09-07T11:54:44.529Z,96276.59
2022-09-07T11:57:39.633Z,96307.38
2022-09-07T12:00:15.753Z,96296.06
2022-09-07T12:03:27.682Z,96322.22
2022-09-07T12:06:25.578Z,96292.28
2022-09-07T12:09:10.440Z,96319.81
2022-09-07T12:12:12.853Z,96296.84
2022-09-07T12:14:54.951Z,96274.94
2022-09-07T12:17:43.180Z,96318.72
2022-09-07T12:20:17.734Z,96181.06
2022-09-07T12:23:05.821Z,96247.97
2022-09-07T12:25:35.779Z,96296.41
2022-09-07T12:28:21.320Z,96286.75
2022-09-07T12:30:58.783Z,96294.34
2022-09-07T12:33:36.823Z,96240.91
2022-09-07T12:36:42.373Z,96280.16
2022-09-07T12:39:25.186Z,96255.31
2022-09-07T12:44:43.840Z,96276.09
2022-09-07T12:47:39.656Z,96256.63
2022-09-07T12:50:28.495Z,96303.34
2022-09-07T12:53:25.725Z,96287.63
2022-09-07T12:56:19.494Z,96259.00
2022-09-07T12:59:00.608Z,96225.03
2022-09-07T13:01:44.320Z,96254.84
2022-09-07T13:04:38.655Z,96269.78
2022-09-07T13:07:36.914Z,96272.53
2022-09-07T13:10:21.404Z,96231.56
2022-09-07T13:12:54.119Z,96233.63
2022-09-07T13:15:42.738Z,96247.66
2022-09-07T13:18:31.624Z,96269.63
2022-09-07T13:21:35.027Z,96265.69
2022-09-07T13:24:46.261Z,96210.38
2022-09-07T13:27:46.723Z,96214.38
2022-09-07T13:30:35.756Z,96269.03
2022-09-07T13:33:45.499Z,96246.31
2022-09-07T13:36:40.289Z,96190.53
2022-09-07T13:39:17.138Z,96260.91
2022-09-07T13:41:53.098Z,96241.25
2022-09-07T13:44:26.580Z,96197.22
2022-09-07T13:47:10.150Z,96254.25
2022-09-07T13:49:56.849Z,96234.25
2022-09-07T13:52:33.321Z,96183.31
2022-09-07T13:55:14.468Z,96210.16
2022-09-07T13:57:54.457Z,96243.66
2022-09-07T14:00:22.812Z,96210.53
2022-09-07T14:02:56.759Z,96217.84
2022-09-07T14:05:28.494Z,96217.19
2022-09-07T14:07:56.778Z,96208.97
2022-09-07T14:10:27.093Z,96227.34
2022-09-07T14:13:08.091Z,96219.09
2022-09-07T14:15:40.680Z,96237.38
2022-09-07T14:18:14.643Z,96148.78
2022-09-07T14:20:46.515Z,96243.59
2022-09-07T14:23:23.795Z,96196.06
2022-09-07T14:26:17.464Z,96170.81
2022-09-07T14:28:50.202Z,96070.56
2022-09-07T14:31:20.780Z,96193.91
2022-09-07T14:33:53.828Z,96105.25
2022-09-07T14:36:44.233Z,96189.22
2022-09-07T14:39:14.290Z,96189.03
2022-09-07T14:41:43.269Z,96165.06
2022-09-07T14:44:30.936Z,96135.94
2022-09-07T14:47:02.892Z,96192.09
2022-09-07T14:49:31.463Z,96175.69
2022-09-07T14:52:00.758Z,96201.19
2022-09-07T14:54:31.938Z,96172.38
2022-09-07T14:57:07.603Z,96208.97
2022-09-07T14:59:43.875Z,96143.72
2022-09-07T15:02:37.250Z,96224.88
2022-09-07T15:05:28.314Z,96177.50
2022-09-07T15:08:01.556Z,96160.47
2022-09-07T15:10:41.241Z,96169.19
2022-09-07T15:13:34.157Z,96170.59
2022-09-07T15:16:07.048Z,96172.03
2022-09-07T15:18:57.249Z,96163.75
2022-09-07T15:21:28.252Z,96196.03
2022-09-07T15:23:59.581Z,96136.06
2022-09-07T15:29:24.014Z,96147.31
2022-09-07T15:32:01.727Z,96100.00
2022-09-07T15:34:32.194Z,96155.16
2022-09-07T15:37:01.699Z,96148.19
2022-09-07T15:39:56.294Z,96106.31
2022-09-07T15:45:14.386Z,96184.53
2022-09-07T15:47:50.714Z,96100.88
2022-09-07T15:50:23.105Z,96008.28
2022-09-07T15:52:51.845Z,96179.13
2022-09-07T15:55:20.016Z,96152.91
2022-09-07T15:57:59.442Z,96104.19
2022-09-07T16:00:34.276Z,96128.38
2022-09-07T16:03:08.842Z,96154.28
2022-09-07T16:05:43.990Z,96139.81
2022-09-07T16:08:32.853Z,96241.84
2022-09-07T16:11:12.472Z,96131.75
2022-09-07T16:13:46.958Z,96144.06
2022-09-07T16:16:16.773Z,96107.03
2022-09-07T16:18:47.106Z,96149.75
2022-09-07T16:21:16.818Z,96068.34
2022-09-07T16:23:48.818Z,96096.94
2022-09-07T16:26:20.285Z,96136.72
2022-09-07T16:28:51.223Z,96077.59
2022-09-07T16:31:22.525Z,96161.69
2022-09-07T16:33:52.511Z,96144.97
2022-09-07T16:36:23.505Z,96156.56
2022-09-07T16:38:56.972Z,96119.81
2022-09-07T16:41:31.558Z,96099.25
2022-09-07T16:44:00.242Z,96151.19
2022-09-07T16:46:31.147Z,96115.06
2022-09-07T16:49:00.685Z,96108.59
2022-09-07T16:51:30.408Z,96117.22
2022-09-07T16:54:01.036Z,96083.78
2022-09-07T16:56:34.595Z,96096.44
2022-09-07T16:59:09.465Z,96127.59
2022-09-07T17:01:38.969Z,96149.66
2022-09-07T17:04:11.263Z,96055.88
2022-09-07T17:06:41.288Z,96119.06
2022-09-07T17:09:10.045Z,96098.25
2022-09-07T17:11:38.464Z,96120.72
2022-09-07T17:14:07.412Z,96112.34
2022-09-07T17:16:39.157Z,96091.53
2022-09-07T17:22:00.807Z,96063.03
2022-09-07T17:24:29.639Z,96168.19
2022-09-07T17:27:00.215Z,96064.66
2022-09-07T17:29:30.407Z,96102.94
2022-09-07T17:34:51.275Z,96117.50
2022-09-07T17:37:19.714Z,96126.63
2022-09-07T17:39:48.005Z,96097.31
2022-09-07T17:42:17.038Z,96120.72
2022-09-07T17:44:45.343Z,96127.22
2022-09-07T17:47:13.885Z,96116.16
2022-09-07T17:49:42.124Z,96115.31
2022-09-07T17:52:11.806Z,96114.00
2022-09-07T17:54:40.258Z,96118.31
2022-09-07T17:57:08.474Z,96126.91
2022-09-07T18:02:24.887Z,96148.72
2022-09-07T18:04:53.253Z,96105.06
2022-09-07T18:07:23.005Z,96109.28
2022-09-07T18:09:51.301Z,96116.63
2022-09-07T18:12:19.460Z,96036.59
2022-09-07T18:14:47.624Z,96135.16
2022-09-07T18:17:15.904Z,96148.00
2022-09-07T18:19:44.173Z,96176.81
2022-09-07T18:22:12.394Z,96144.75
2022-09-07T18:24:42.303Z,96179.81
2022-09-07T18:27:10.768Z,96117.31
2022-09-07T18:29:38.986Z,96185.00
2022-09-07T18:32:09.915Z,96176.56
2022-09-07T18:34:41.420Z,96160.81
2022-09-07T18:37:12.120Z,96136.53
2022-09-07T18:39:42.112Z,96150.34
2022-09-07T18:42:11.074Z,96189.06
2022-09-07T18:47:29.355Z,96108.03
2022-09-07T18:49:58.709Z,96114.97
2022-09-07T18:55:17.370Z,96166.13
2022-09-07T18:57:45.601Z,96177.09
2022-09-07T19:00:15.127Z,96146.63
2022-09-07T19:02:43.805Z,96153.25
2022-09-07T19:08:03.279Z,96184.47
2022-09-07T19:10:35.916Z,96165.16
2022-09-07T19:13:04.573Z,96195.81
2022-09-07T19:15:37.430Z,96192.19
2022-09-07T19:18:08.016Z,96182.41
2022-09-07T19:20:36.363Z,96159.31
2022-09-07T19:23:04.945Z,96205.88
2022-09-07T19:25:34.514Z,96127.97
2022-09-07T19:28:02.819Z,96180.75
2022-09-07T19:30:31.291Z,96181.84
2022-09-07T19:33:03.990Z,96120.91
2022-09-07T19:35:36.776Z,96191.38
2022-09-07T19:38:05.604Z,96085.78
2022-09-07T19:40:35.415Z,96204.88
2022-09-07T19:43:03.624Z,96154.59
2022-09-07T19:45:32.327Z,96175.09
2022-09-07T19:48:00.500Z,96141.13
2022-09-07T19:50:28.700Z,96149.78
2022-09-07T19:52:57.000Z,96157.97
2022-09-07T19:55:25.830Z,96203.69
2022-09-07T19:57:55.344Z,96272.19
2022-09-07T20:00:24.687Z,96168.53
2022-09-07T20:02:54.149Z,96144.06
2022-09-07T20:05:23.775Z,96158.94
2022-09-07T20:07:51.969Z,96174.50
2022-09-07T20:10:20.433Z,96188.88
2022-09-07T20:12:48.637Z,96139.50
2022-09-07T20:15:18.180Z,96174.22
2022-09-07T20:17:47.361Z,96200.13
2022-09-07T20:20:15.841Z,96170.41
2022-09-07T20:22:44.076Z,96149.28
2022-09-07T20:25:13.386Z,96127.63
2022-09-07T20:27:41.896Z,96123.09
2022-09-07T20:30:11.806Z,96134.63
2022-09-07T20:32:41.365Z,96110.91
2022-09-07T20:35:10.797Z,96165.75
2022-09-07T20:37:38.993Z,96118.50
2022-09-07T20:40:09.033Z,96103.94
2022-09-07T20:42:37.566Z,96122.78
2022-09-07T20:45:07.107Z,96098.16
2022-09-07T20:47:35.463Z,96106.56
2022-09-07T20:50:06.348Z,95967.44
2022-09-07T20:52:34.630Z,96100.97
2022-09-07T20:55:02.820Z,96094.63
2022-09-07T20:57:31.054Z,96107.31
2022-09-07T20:59:59.230Z,96086.59
2022-09-07T21:02:27.408Z,96140.09
2022-09-07T21:04:55.614Z,96056.31
2022-09-07T21:07:25.171Z,96076.00
2022-09-07T21:09:53.364Z,96055.66
2022-09-07T21:12:21.558Z,96071.09
2022-09-07T21:14:50.139Z,96072.47
2022-09-07T21:17:18.459Z,96060.00
2022-09-07T21:19:46.678Z,96055.81
2022-09-07T21:22:15.688Z,96066.84
2022-09-07T21:24:45.245Z,96013.81
2022-09-07T21:27:15.048Z,96073.16
2022-09-07T21:29:43.757Z,96082.88
2022-09-07T21:32:11.958Z,96054.53
2022-09-07T21:34:40.349Z,96048.97
2022-09-07T21:37:08.582Z,96066.94
2022-09-07T21:39:36.825Z,96066.63
2022-09-07T21:42:06.803Z,96101.28
2022-09-07T21:44:35.014Z,96064.38
2022-09-07T21:47:03.286Z,96138.03
2022-09-07T21:49:31.483Z,96057.66
2022-09-07T21:51:59.682Z,96129.84
2022-09-07T21:54:27.892Z,96058.31
2022-09-07T21:56:56.869Z,96061.84
2022-09-07T21:59:26.471Z,96023.53
2022-09-07T22:01:54.691Z,96090.38
2022-09-07T22:04:22.952Z,96101.06
2022-09-07T22:06:51.149Z,96127.34
2022-09-07T22:09:19.561Z,96023.88
2022-09-07T22:11:49.299Z,96138.88
2022-09-07T22:14:17.688Z,96092.50
2022-09-07T22:16:47.460Z,96076.41
2022-09-07T22:19:15.701Z,96023.28
2022-09-07T22:21:43.977Z,96115.28
2022-09-07T22:24:15.135Z,96074.06
2022-09-07T22:26:43.411Z,96069.53
2022-09-07T22:29:13.362Z,96074.06
2022-09-07T22:31:42.321Z,96072.78
2022-09-07T22:34:12.304Z,96101.34
2022-09-07T22:36:43.094Z,96068.16
2022-09-07T22:39:14.878Z,96114.44
2022-09-07T22:41:45.091Z,96037.06
2022-09-07T22:44:16.896Z,96097.25
2022-09-07T22:46:47.546Z,96003.38
2022-09-07T22:49:18.148Z,96061.75
2022-09-07T22:51:47.061Z,96038.78
2022-09-07T22:54:15.790Z,96048.53
2022-09-07T22:56:44.103Z,96083.47
2022-09-07T22:59:13.779Z,95959.84
2022-09-07T23:01:42.583Z,96037.06
2022-09-07T23:04:13.179Z,95988.88
2022-09-07T23:06:44.230Z,96052.84
2022-09-07T23:09:14.782Z,95873.13
2022-09-07T23:11:43.745Z,96001.78
2022-09-07T23:14:16.120Z,96016.06
2022-09-07T23:16:44.980Z,96040.31
2022-09-07T23:19:15.023Z,96034.84
2022-09-07T23:21:44.980Z,95991.47
2022-09-07T23:24:14.723Z,96017.91
2022-09-07T23:26:43.308Z,95992.38
2022-09-07T23:29:13.902Z,96016.84
2022-09-07T23:31:43.067Z,96024.53
2022-09-07T23:34:11.871Z,95984.13
2022-09-07T23:36:40.107Z,96009.34
2022-09-07T23:39:10.557Z,95954.53
2022-09-07T23:41:38.744Z,96001.53
2022-09-07T23:44:07.209Z,96072.78
2022-09-07T23:46:35.539Z,96054.22
2022-09-07T23:49:03.988Z,96015.00
2022-09-07T23:51:32.185Z,95994.47
2022-09-07T23:54:00.417Z,96051.09
2022-09-07T23:56:31.183Z,96053.28
2022-09-07T23:59:00.052Z,96026.25
